Ferris, Texas
Current Conditions -  °F | °C
As of 3:55 AM on Sunday 21 Dec 2014 (Local Time) from KLNC Reporting Station
Overcast Overcast  
Wind Chill: 47°   Ceiling: 3000
Heat Index: 47°   Visibility: 7mi
Dew Point: 44°   Wind: 3mph
Humidity: 90%   Direction: 130°SE
Pressure: 30.15"   Gusts: NA
Location:  32.53°N, 96.67°W
Report Text: KLNC 210955Z AUTO 13003KT 7SM OVC030 08/07 A3015 RMK AO2 T00810065
Loading
Personal Weather Stations






























Interactive Weather Map New forecast layout! Learn more

10-Day Weather Forecast

Advertisements
Track Severe Weather on mobile